sensor_id;sensor_type;location;lat;lon;timestamp;P1;durP1;ratioP1;P2;durP2;ratioP2
55465;SDS011;41329;41.594;23.810;2023-11-19T00:02:11;0.50;;;0.50;;
55465;SDS011;41329;41.594;23.810;2023-11-19T00:04:37;0.50;;;0.50;;
55465;SDS011;41329;41.594;23.810;2023-11-19T00:07:04;0.97;;;0.73;;
55465;SDS011;41329;41.594;23.810;2023-11-19T00:09:31;0.60;;;0.50;;
55465;SDS011;41329;41.594;23.810;2023-11-19T00:11:57;0.40;;;0.40;;
55465;SDS011;41329;41.594;23.810;2023-11-19T00:14:25;0.60;;;0.47;;
55465;SDS011;41329;41.594;23.810;2023-11-19T00:16:51;0.43;;;0.40;;
55465;SDS011;41329;41.594;23.810;2023-11-19T00:19:16;0.40;;;0.40;;
55465;SDS011;41329;41.594;23.810;2023-11-19T00:21:42;0.40;;;0.40;;
55465;SDS011;41329;41.594;23.810;2023-11-19T00:24:08;0.50;;;0.50;;
55465;SDS011;41329;41.594;23.810;2023-11-19T00:26:33;0.50;;;0.50;;
55465;SDS011;41329;41.594;23.810;2023-11-19T00:28:59;0.77;;;0.50;;
55465;SDS011;41329;41.594;23.810;2023-11-19T00:31:25;0.47;;;0.40;;
55465;SDS011;41329;41.594;23.810;2023-11-19T00:33:52;0.60;;;0.50;;
55465;SDS011;41329;41.594;23.810;2023-11-19T00:36:18;0.50;;;0.50;;
55465;SDS011;41329;41.594;23.810;2023-11-19T00:38:44;0.87;;;0.50;;
55465;SDS011;41329;41.594;23.810;2023-11-19T00:41:09;0.60;;;0.40;;
55465;SDS011;41329;41.594;23.810;2023-11-19T00:43:35;0.40;;;0.40;;
55465;SDS011;41329;41.594;23.810;2023-11-19T00:46:01;0.90;;;0.43;;
55465;SDS011;41329;41.594;23.810;2023-11-19T00:48:29;0.23;;;0.23;;
55465;SDS011;41329;41.594;23.810;2023-11-19T00:50:54;1.17;;;0.30;;
55465;SDS011;41329;41.594;23.810;2023-11-19T00:53:20;0.50;;;0.40;;
55465;SDS011;41329;41.594;23.810;2023-11-19T00:55:45;0.37;;;0.37;;
55465;SDS011;41329;41.594;23.810;2023-11-19T00:58:11;0.50;;;0.50;;
55465;SDS011;41329;41.594;23.810;2023-11-19T01:00:36;0.53;;;0.50;;
55465;SDS011;41329;41.594;23.810;2023-11-19T01:03:01;0.40;;;0.40;;
55465;SDS011;41329;41.594;23.810;2023-11-19T01:05:27;0.50;;;0.50;;
55465;SDS011;41329;41.594;23.810;2023-11-19T01:07:53;0.80;;;0.70;;
55465;SDS011;41329;41.594;23.810;2023-11-19T01:10:19;0.63;;;0.63;;
55465;SDS011;41329;41.594;23.810;2023-11-19T01:12:45;0.60;;;0.60;;
55465;SDS011;41329;41.594;23.810;2023-11-19T01:15:11;1.03;;;0.60;;
55465;SDS011;41329;41.594;23.810;2023-11-19T01:17:38;1.80;;;0.70;;
55465;SDS011;41329;41.594;23.810;2023-11-19T01:20:03;0.90;;;0.90;;
55465;SDS011;41329;41.594;23.810;2023-11-19T01:22:32;1.07;;;0.80;;
55465;SDS011;41329;41.594;23.810;2023-11-19T01:24:57;1.20;;;0.80;;
55465;SDS011;41329;41.594;23.810;2023-11-19T01:27:23;3.47;;;1.43;;
55465;SDS011;41329;41.594;23.810;2023-11-19T01:29:49;2.03;;;1.93;;
55465;SDS011;41329;41.594;23.810;2023-11-19T01:32:15;1.03;;;1.03;;
55465;SDS011;41329;41.594;23.810;2023-11-19T01:34:40;1.07;;;0.90;;
55465;SDS011;41329;41.594;23.810;2023-11-19T01:37:06;1.00;;;0.90;;
55465;SDS011;41329;41.594;23.810;2023-11-19T01:39:31;1.30;;;1.20;;
55465;SDS011;41329;41.594;23.810;2023-11-19T01:41:57;1.00;;;1.00;;
55465;SDS011;41329;41.594;23.810;2023-11-19T01:44:22;1.17;;;1.00;;
55465;SDS011;41329;41.594;23.810;2023-11-19T01:46:48;0.90;;;0.90;;
55465;SDS011;41329;41.594;23.810;2023-11-19T01:49:17;1.20;;;1.10;;
55465;SDS011;41329;41.594;23.810;2023-11-19T01:51:43;3.33;;;1.30;;
55465;SDS011;41329;41.594;23.810;2023-11-19T01:54:09;0.80;;;0.80;;
55465;SDS011;41329;41.594;23.810;2023-11-19T01:56:35;0.70;;;0.70;;
55465;SDS011;41329;41.594;23.810;2023-11-19T01:59:05;0.70;;;0.60;;
55465;SDS011;41329;41.594;23.810;2023-11-19T02:01:32;0.50;;;0.50;;
55465;SDS011;41329;41.594;23.810;2023-11-19T02:03:59;1.30;;;1.17;;
55465;SDS011;41329;41.594;23.810;2023-11-19T02:06:26;0.80;;;0.70;;
55465;SDS011;41329;41.594;23.810;2023-11-19T02:08:53;0.90;;;0.80;;
55465;SDS011;41329;41.594;23.810;2023-11-19T02:11:19;0.80;;;0.80;;
55465;SDS011;41329;41.594;23.810;2023-11-19T02:13:44;0.90;;;0.70;;
55465;SDS011;41329;41.594;23.810;2023-11-19T02:16:09;3.03;;;1.00;;
55465;SDS011;41329;41.594;23.810;2023-11-19T02:18:35;1.47;;;1.10;;
55465;SDS011;41329;41.594;23.810;2023-11-19T02:21:01;1.80;;;1.20;;
55465;SDS011;41329;41.594;23.810;2023-11-19T02:23:27;2.50;;;1.70;;
55465;SDS011;41329;41.594;23.810;2023-11-19T02:28:24;2.77;;;1.50;;
55465;SDS011;41329;41.594;23.810;2023-11-19T02:30:49;1.50;;;1.40;;
55465;SDS011;41329;41.594;23.810;2023-11-19T02:33:15;1.83;;;1.53;;
55465;SDS011;41329;41.594;23.810;2023-11-19T02:35:40;2.40;;;1.83;;
55465;SDS011;41329;41.594;23.810;2023-11-19T02:38:06;2.20;;;2.00;;
55465;SDS011;41329;41.594;23.810;2023-11-19T02:40:32;2.13;;;1.83;;
55465;SDS011;41329;41.594;23.810;2023-11-19T02:42:58;1.50;;;1.40;;
55465;SDS011;41329;41.594;23.810;2023-11-19T02:45:23;1.80;;;1.60;;
55465;SDS011;41329;41.594;23.810;2023-11-19T02:47:50;1.17;;;1.07;;
55465;SDS011;41329;41.594;23.810;2023-11-19T02:50:17;1.77;;;1.10;;
55465;SDS011;41329;41.594;23.810;2023-11-19T02:52:50;5.60;;;1.17;;
55465;SDS011;41329;41.594;23.810;2023-11-19T02:55:17;1.13;;;1.03;;
55465;SDS011;41329;41.594;23.810;2023-11-19T02:57:43;1.37;;;1.27;;
55465;SDS011;41329;41.594;23.810;2023-11-19T03:00:31;2.00;;;1.08;;
55465;SDS011;41329;41.594;23.810;2023-11-19T03:03:02;0.80;;;0.80;;
55465;SDS011;41329;41.594;23.810;2023-11-19T03:05:42;1.40;;;1.10;;
55465;SDS011;41329;41.594;23.810;2023-11-19T03:08:09;1.50;;;1.30;;
55465;SDS011;41329;41.594;23.810;2023-11-19T03:10:35;1.27;;;1.17;;
55465;SDS011;41329;41.594;23.810;2023-11-19T03:13:01;1.90;;;1.60;;
55465;SDS011;41329;41.594;23.810;2023-11-19T03:15:27;2.10;;;1.90;;
55465;SDS011;41329;41.594;23.810;2023-11-19T03:17:52;2.17;;;1.80;;
55465;SDS011;41329;41.594;23.810;2023-11-19T03:20:18;1.77;;;1.60;;
55465;SDS011;41329;41.594;23.810;2023-11-19T03:22:43;1.40;;;1.30;;
55465;SDS011;41329;41.594;23.810;2023-11-19T03:25:09;2.87;;;1.57;;
55465;SDS011;41329;41.594;23.810;2023-11-19T03:27:36;2.33;;;1.67;;
55465;SDS011;41329;41.594;23.810;2023-11-19T03:30:02;2.30;;;1.03;;
55465;SDS011;41329;41.594;23.810;2023-11-19T03:32:30;1.00;;;0.93;;
55465;SDS011;41329;41.594;23.810;2023-11-19T03:34:56;1.00;;;0.90;;
55465;SDS011;41329;41.594;23.810;2023-11-19T03:37:22;0.87;;;0.87;;
55465;SDS011;41329;41.594;23.810;2023-11-19T03:39:48;0.70;;;0.60;;
55465;SDS011;41329;41.594;23.810;2023-11-19T03:42:14;0.87;;;0.87;;
55465;SDS011;41329;41.594;23.810;2023-11-19T03:44:40;1.03;;;1.03;;
55465;SDS011;41329;41.594;23.810;2023-11-19T03:47:05;1.07;;;0.80;;
55465;SDS011;41329;41.594;23.810;2023-11-19T03:49:31;1.37;;;1.00;;
55465;SDS011;41329;41.594;23.810;2023-11-19T03:51:57;1.70;;;1.60;;
55465;SDS011;41329;41.594;23.810;2023-11-19T03:54:22;2.13;;;1.83;;
55465;SDS011;41329;41.594;23.810;2023-11-19T03:56:48;7.77;;;7.27;;
55465;SDS011;41329;41.594;23.810;2023-11-19T03:59:14;5.10;;;4.80;;
55465;SDS011;41329;41.594;23.810;2023-11-19T04:01:40;2.80;;;2.60;;
55465;SDS011;41329;41.594;23.810;2023-11-19T04:04:06;2.60;;;2.40;;
55465;SDS011;41329;41.594;23.810;2023-11-19T04:06:31;2.70;;;2.50;;
55465;SDS011;41329;41.594;23.810;2023-11-19T04:08:57;2.40;;;2.20;;
55465;SDS011;41329;41.594;23.810;2023-11-19T04:11:22;2.97;;;2.77;;
55465;SDS011;41329;41.594;23.810;2023-11-19T04:13:48;3.93;;;3.63;;
55465;SDS011;41329;41.594;23.810;2023-11-19T04:16:13;4.23;;;4.03;;
55465;SDS011;41329;41.594;23.810;2023-11-19T04:18:39;3.20;;;3.00;;
55465;SDS011;41329;41.594;23.810;2023-11-19T04:21:06;5.63;;;5.33;;
55465;SDS011;41329;41.594;23.810;2023-11-19T04:23:34;5.50;;;5.10;;
55465;SDS011;41329;41.594;23.810;2023-11-19T04:26:03;4.90;;;4.60;;
55465;SDS011;41329;41.594;23.810;2023-11-19T04:28:30;4.63;;;4.22;;
55465;SDS011;41329;41.594;23.810;2023-11-19T04:30:55;3.63;;;3.33;;
55465;SDS011;41329;41.594;23.810;2023-11-19T04:33:21;4.10;;;3.37;;
55465;SDS011;41329;41.594;23.810;2023-11-19T04:35:46;3.10;;;2.90;;
55465;SDS011;41329;41.594;23.810;2023-11-19T04:38:12;2.10;;;2.00;;
55465;SDS011;41329;41.594;23.810;2023-11-19T04:40:37;2.50;;;2.30;;
55465;SDS011;41329;41.594;23.810;2023-11-19T04:43:03;2.00;;;1.90;;
55465;SDS011;41329;41.594;23.810;2023-11-19T04:45:28;1.90;;;1.80;;
55465;SDS011;41329;41.594;23.810;2023-11-19T04:47:53;1.47;;;1.37;;
55465;SDS011;41329;41.594;23.810;2023-11-19T04:50:19;1.37;;;1.27;;
55465;SDS011;41329;41.594;23.810;2023-11-19T04:52:44;1.60;;;1.50;;
55465;SDS011;41329;41.594;23.810;2023-11-19T04:55:10;3.50;;;3.20;;
55465;SDS011;41329;41.594;23.810;2023-11-19T04:57:37;2.30;;;2.10;;
55465;SDS011;41329;41.594;23.810;2023-11-19T05:00:03;1.80;;;1.70;;
55465;SDS011;41329;41.594;23.810;2023-11-19T05:02:30;3.60;;;3.30;;
55465;SDS011;41329;41.594;23.810;2023-11-19T05:04:55;4.40;;;3.40;;
55465;SDS011;41329;41.594;23.810;2023-11-19T05:07:21;4.33;;;3.70;;
55465;SDS011;41329;41.594;23.810;2023-11-19T05:09:46;2.97;;;2.77;;
55465;SDS011;41329;41.594;23.810;2023-11-19T05:12:11;3.37;;;3.13;;
55465;SDS011;41329;41.594;23.810;2023-11-19T05:14:37;5.73;;;5.33;;
55465;SDS011;41329;41.594;23.810;2023-11-19T05:17:03;7.07;;;6.47;;
55465;SDS011;41329;41.594;23.810;2023-11-19T05:19:29;3.10;;;2.90;;
55465;SDS011;41329;41.594;23.810;2023-11-19T05:21:54;7.17;;;6.47;;
55465;SDS011;41329;41.594;23.810;2023-11-19T05:24:20;9.70;;;8.70;;
55465;SDS011;41329;41.594;23.810;2023-11-19T05:26:46;69.00;;;29.17;;
55465;SDS011;41329;41.594;23.810;2023-11-19T05:29:12;76.63;;;32.67;;
55465;SDS011;41329;41.594;23.810;2023-11-19T05:31:37;41.90;;;21.43;;
55465;SDS011;41329;41.594;23.810;2023-11-19T05:34:03;22.43;;;15.87;;
55465;SDS011;41329;41.594;23.810;2023-11-19T05:36:29;14.37;;;12.87;;
55465;SDS011;41329;41.594;23.810;2023-11-19T05:38:54;11.97;;;11.07;;
55465;SDS011;41329;41.594;23.810;2023-11-19T05:41:20;13.43;;;12.37;;
55465;SDS011;41329;41.594;23.810;2023-11-19T05:43:45;12.50;;;11.67;;
55465;SDS011;41329;41.594;23.810;2023-11-19T05:46:11;10.60;;;9.80;;
55465;SDS011;41329;41.594;23.810;2023-11-19T05:48:38;7.97;;;6.53;;
55465;SDS011;41329;41.594;23.810;2023-11-19T05:51:04;4.80;;;4.50;;
55465;SDS011;41329;41.594;23.810;2023-11-19T05:53:30;3.97;;;3.70;;
55465;SDS011;41329;41.594;23.810;2023-11-19T05:55:56;4.20;;;3.43;;
55465;SDS011;41329;41.594;23.810;2023-11-19T05:58:23;3.50;;;3.20;;
55465;SDS011;41329;41.594;23.810;2023-11-19T06:00:51;7.03;;;6.30;;
55465;SDS011;41329;41.594;23.810;2023-11-19T06:03:17;5.63;;;5.23;;
55465;SDS011;41329;41.594;23.810;2023-11-19T06:05:44;12.40;;;11.30;;
55465;SDS011;41329;41.594;23.810;2023-11-19T06:08:11;13.37;;;12.27;;
55465;SDS011;41329;41.594;23.810;2023-11-19T06:10:38;16.10;;;14.43;;
55465;SDS011;41329;41.594;23.810;2023-11-19T06:13:04;18.40;;;15.90;;
55465;SDS011;41329;41.594;23.810;2023-11-19T06:15:30;83.23;;;40.83;;
55465;SDS011;41329;41.594;23.810;2023-11-19T06:17:57;50.20;;;28.43;;
55465;SDS011;41329;41.594;23.810;2023-11-19T06:20:24;15.33;;;14.03;;
55465;SDS011;41329;41.594;23.810;2023-11-19T06:22:50;22.50;;;16.70;;
55465;SDS011;41329;41.594;23.810;2023-11-19T06:25:15;8.43;;;7.67;;
55465;SDS011;41329;41.594;23.810;2023-11-19T06:27:41;6.70;;;6.03;;
55465;SDS011;41329;41.594;23.810;2023-11-19T06:30:07;5.43;;;4.97;;
55465;SDS011;41329;41.594;23.810;2023-11-19T06:32:33;6.23;;;5.67;;
55465;SDS011;41329;41.594;23.810;2023-11-19T06:34:59;9.70;;;9.17;;
55465;SDS011;41329;41.594;23.810;2023-11-19T06:37:24;32.40;;;28.67;;
55465;SDS011;41329;41.594;23.810;2023-11-19T06:39:50;19.73;;;16.20;;
55465;SDS011;41329;41.594;23.810;2023-11-19T06:42:15;55.13;;;31.63;;
55465;SDS011;41329;41.594;23.810;2023-11-19T06:44:42;19.00;;;16.40;;
55465;SDS011;41329;41.594;23.810;2023-11-19T06:47:07;9.23;;;8.43;;
55465;SDS011;41329;41.594;23.810;2023-11-19T06:49:33;7.33;;;4.93;;
55465;SDS011;41329;41.594;23.810;2023-11-19T06:51:58;5.30;;;4.90;;
55465;SDS011;41329;41.594;23.810;2023-11-19T06:54:24;4.07;;;3.83;;
55465;SDS011;41329;41.594;23.810;2023-11-19T06:56:49;2.63;;;2.43;;
55465;SDS011;41329;41.594;23.810;2023-11-19T06:59:15;3.17;;;2.97;;
55465;SDS011;41329;41.594;23.810;2023-11-19T07:01:40;4.00;;;2.83;;
55465;SDS011;41329;41.594;23.810;2023-11-19T07:04:10;2.57;;;2.37;;
55465;SDS011;41329;41.594;23.810;2023-11-19T07:06:36;3.30;;;2.80;;
55465;SDS011;41329;41.594;23.810;2023-11-19T07:09:02;3.83;;;3.53;;
55465;SDS011;41329;41.594;23.810;2023-11-19T07:11:40;5.63;;;5.23;;
55465;SDS011;41329;41.594;23.810;2023-11-19T07:14:07;8.13;;;7.53;;
55465;SDS011;41329;41.594;23.810;2023-11-19T07:16:33;3.47;;;3.17;;
55465;SDS011;41329;41.594;23.810;2023-11-19T07:19:00;4.30;;;4.00;;
55465;SDS011;41329;41.594;23.810;2023-11-19T07:21:25;3.10;;;2.90;;
55465;SDS011;41329;41.594;23.810;2023-11-19T07:23:53;3.33;;;3.03;;
55465;SDS011;41329;41.594;23.810;2023-11-19T07:26:19;4.80;;;4.50;;
55465;SDS011;41329;41.594;23.810;2023-11-19T07:28:44;4.03;;;3.73;;
55465;SDS011;41329;41.594;23.810;2023-11-19T07:31:10;5.57;;;5.07;;
55465;SDS011;41329;41.594;23.810;2023-11-19T07:33:35;6.03;;;5.53;;
55465;SDS011;41329;41.594;23.810;2023-11-19T07:36:01;3.73;;;3.43;;
55465;SDS011;41329;41.594;23.810;2023-11-19T07:38:27;3.30;;;3.10;;
55465;SDS011;41329;41.594;23.810;2023-11-19T07:40:52;6.17;;;5.67;;
55465;SDS011;41329;41.594;23.810;2023-11-19T07:43:18;4.73;;;4.30;;
55465;SDS011;41329;41.594;23.810;2023-11-19T07:45:43;3.53;;;3.33;;
55465;SDS011;41329;41.594;23.810;2023-11-19T07:48:10;2.40;;;2.20;;
55465;SDS011;41329;41.594;23.810;2023-11-19T07:50:36;3.40;;;3.20;;
55465;SDS011;41329;41.594;23.810;2023-11-19T07:53:01;2.63;;;2.30;;
55465;SDS011;41329;41.594;23.810;2023-11-19T07:55:29;6.83;;;6.33;;
55465;SDS011;41329;41.594;23.810;2023-11-19T07:57:56;2.93;;;2.73;;
55465;SDS011;41329;41.594;23.810;2023-11-19T08:00:21;2.43;;;2.23;;
55465;SDS011;41329;41.594;23.810;2023-11-19T08:02:46;4.13;;;2.30;;
55465;SDS011;41329;41.594;23.810;2023-11-19T08:05:12;4.33;;;3.80;;
55465;SDS011;41329;41.594;23.810;2023-11-19T08:07:37;2.60;;;2.40;;
55465;SDS011;41329;41.594;23.810;2023-11-19T08:10:04;4.70;;;4.03;;
55465;SDS011;41329;41.594;23.810;2023-11-19T08:12:30;8.17;;;7.37;;
55465;SDS011;41329;41.594;23.810;2023-11-19T08:14:56;7.03;;;5.07;;
55465;SDS011;41329;41.594;23.810;2023-11-19T08:17:23;14.60;;;13.30;;
55465;SDS011;41329;41.594;23.810;2023-11-19T08:19:49;62.30;;;36.77;;
55465;SDS011;41329;41.594;23.810;2023-11-19T08:22:16;15.63;;;12.67;;
55465;SDS011;41329;41.594;23.810;2023-11-19T08:24:42;12.37;;;8.30;;
55465;SDS011;41329;41.594;23.810;2023-11-19T08:27:08;21.53;;;14.13;;
55465;SDS011;41329;41.594;23.810;2023-11-19T08:29:33;11.50;;;10.30;;
55465;SDS011;41329;41.594;23.810;2023-11-19T08:32:00;6.03;;;5.53;;
55465;SDS011;41329;41.594;23.810;2023-11-19T08:34:27;10.63;;;9.57;;
55465;SDS011;41329;41.594;23.810;2023-11-19T08:36:52;5.37;;;3.70;;
55465;SDS011;41329;41.594;23.810;2023-11-19T08:39:21;4.30;;;4.00;;
55465;SDS011;41329;41.594;23.810;2023-11-19T08:41:47;2.63;;;2.43;;
55465;SDS011;41329;41.594;23.810;2023-11-19T08:44:13;4.77;;;4.47;;
55465;SDS011;41329;41.594;23.810;2023-11-19T08:46:39;8.20;;;7.67;;
55465;SDS011;41329;41.594;23.810;2023-11-19T08:49:05;6.93;;;5.60;;
55465;SDS011;41329;41.594;23.810;2023-11-19T08:51:33;3.53;;;3.23;;
55465;SDS011;41329;41.594;23.810;2023-11-19T08:53:59;2.30;;;1.87;;
55465;SDS011;41329;41.594;23.810;2023-11-19T08:56:24;3.07;;;2.87;;
55465;SDS011;41329;41.594;23.810;2023-11-19T08:58:50;3.47;;;3.27;;
55465;SDS011;41329;41.594;23.810;2023-11-19T09:01:16;3.90;;;3.60;;
55465;SDS011;41329;41.594;23.810;2023-11-19T09:03:41;2.50;;;2.30;;
55465;SDS011;41329;41.594;23.810;2023-11-19T09:06:06;3.13;;;2.83;;
55465;SDS011;41329;41.594;23.810;2023-11-19T09:08:32;4.50;;;4.20;;
55465;SDS011;41329;41.594;23.810;2023-11-19T09:10:57;11.10;;;10.30;;
55465;SDS011;41329;41.594;23.810;2023-11-19T09:13:23;2.77;;;2.57;;
55465;SDS011;41329;41.594;23.810;2023-11-19T09:15:48;2.47;;;2.27;;
55465;SDS011;41329;41.594;23.810;2023-11-19T09:18:14;2.03;;;1.87;;
55465;SDS011;41329;41.594;23.810;2023-11-19T09:20:39;2.47;;;2.27;;
55465;SDS011;41329;41.594;23.810;2023-11-19T09:23:05;1.53;;;1.43;;
55465;SDS011;41329;41.594;23.810;2023-11-19T09:25:31;2.40;;;2.20;;
55465;SDS011;41329;41.594;23.810;2023-11-19T09:27:56;2.80;;;2.40;;
55465;SDS011;41329;41.594;23.810;2023-11-19T09:30:22;2.83;;;2.63;;
55465;SDS011;41329;41.594;23.810;2023-11-19T09:32:48;3.00;;;2.80;;
55465;SDS011;41329;41.594;23.810;2023-11-19T09:35:13;5.70;;;5.20;;
55465;SDS011;41329;41.594;23.810;2023-11-19T09:37:40;3.63;;;2.97;;
55465;SDS011;41329;41.594;23.810;2023-11-19T09:40:05;2.93;;;2.23;;
55465;SDS011;41329;41.594;23.810;2023-11-19T09:42:36;2.13;;;1.90;;
55465;SDS011;41329;41.594;23.810;2023-11-19T09:45:09;4.20;;;3.67;;
55465;SDS011;41329;41.594;23.810;2023-11-19T09:47:39;14.07;;;11.23;;
55465;SDS011;41329;41.594;23.810;2023-11-19T09:50:06;8.20;;;7.40;;
55465;SDS011;41329;41.594;23.810;2023-11-19T09:52:33;73.97;;;39.10;;
55465;SDS011;41329;41.594;23.810;2023-11-19T09:54:58;68.57;;;48.20;;
55465;SDS011;41329;41.594;23.810;2023-11-19T09:57:24;135.20;;;67.90;;
55465;SDS011;41329;41.594;23.810;2023-11-19T09:59:49;6.63;;;6.13;;
55465;SDS011;41329;41.594;23.810;2023-11-19T10:02:15;46.10;;;22.70;;
55465;SDS011;41329;41.594;23.810;2023-11-19T10:04:42;14.57;;;10.43;;
55465;SDS011;41329;41.594;23.810;2023-11-19T10:07:10;25.63;;;15.30;;
55465;SDS011;41329;41.594;23.810;2023-11-19T10:09:35;5.43;;;4.93;;
55465;SDS011;41329;41.594;23.810;2023-11-19T10:12:01;23.20;;;14.67;;
55465;SDS011;41329;41.594;23.810;2023-11-19T10:14:26;2.60;;;2.40;;
55465;SDS011;41329;41.594;23.810;2023-11-19T10:16:54;15.17;;;11.00;;
55465;SDS011;41329;41.594;23.810;2023-11-19T10:19:20;21.37;;;14.23;;
55465;SDS011;41329;41.594;23.810;2023-11-19T10:21:46;110.60;;;46.37;;
55465;SDS011;41329;41.594;23.810;2023-11-19T10:24:12;2.03;;;1.93;;
55465;SDS011;41329;41.594;23.810;2023-11-19T10:26:37;2.83;;;1.87;;
55465;SDS011;41329;41.594;23.810;2023-11-19T10:29:03;1.20;;;1.10;;
55465;SDS011;41329;41.594;23.810;2023-11-19T10:31:29;8.47;;;7.83;;
55465;SDS011;41329;41.594;23.810;2023-11-19T10:33:54;5.40;;;4.97;;
55465;SDS011;41329;41.594;23.810;2023-11-19T10:36:20;1.90;;;1.80;;
55465;SDS011;41329;41.594;23.810;2023-11-19T10:38:51;1.40;;;1.30;;
55465;SDS011;41329;41.594;23.810;2023-11-19T10:41:53;1.00;;;1.00;;
55465;SDS011;41329;41.594;23.810;2023-11-19T10:44:12;1.13;;;1.13;;
55465;SDS011;41329;41.594;23.810;2023-11-19T10:46:41;1.67;;;1.57;;
55465;SDS011;41329;41.594;23.810;2023-11-19T10:49:08;1.53;;;1.43;;
55465;SDS011;41329;41.594;23.810;2023-11-19T10:51:34;2.13;;;1.30;;
55465;SDS011;41329;41.594;23.810;2023-11-19T10:54:04;1.40;;;1.30;;
55465;SDS011;41329;41.594;23.810;2023-11-19T10:56:32;1.93;;;1.73;;
55465;SDS011;41329;41.594;23.810;2023-11-19T10:58:59;1.53;;;1.43;;
55465;SDS011;41329;41.594;23.810;2023-11-19T11:01:35;1.53;;;1.43;;
55465;SDS011;41329;41.594;23.810;2023-11-19T11:04:13;7.93;;;7.27;;
55465;SDS011;41329;41.594;23.810;2023-11-19T11:06:42;4.00;;;3.70;;
55465;SDS011;41329;41.594;23.810;2023-11-19T11:09:08;3.63;;;2.07;;
55465;SDS011;41329;41.594;23.810;2023-11-19T11:11:39;2.08;;;1.30;;
55465;SDS011;41329;41.594;23.810;2023-11-19T11:14:05;1.23;;;1.23;;
55465;SDS011;41329;41.594;23.810;2023-11-19T11:16:32;1.10;;;1.00;;
55465;SDS011;41329;41.594;23.810;2023-11-19T11:18:59;1.40;;;1.30;;
55465;SDS011;41329;41.594;23.810;2023-11-19T11:21:25;2.30;;;2.10;;
55465;SDS011;41329;41.594;23.810;2023-11-19T11:28:48;1.00;;;1.00;;
55465;SDS011;41329;41.594;23.810;2023-11-19T11:37:06;1.17;;;0.80;;
55465;SDS011;41329;41.594;23.810;2023-11-19T11:39:39;2.60;;;2.40;;
55465;SDS011;41329;41.594;23.810;2023-11-19T11:42:48;1.53;;;1.40;;
55465;SDS011;41329;41.594;23.810;2023-11-19T11:50:08;1.20;;;1.10;;
55465;SDS011;41329;41.594;23.810;2023-11-19T11:55:25;1.10;;;1.10;;
55465;SDS011;41329;41.594;23.810;2023-11-19T11:57:56;2.10;;;1.90;;
55465;SDS011;41329;41.594;23.810;2023-11-19T12:00:38;1.37;;;1.00;;
55465;SDS011;41329;41.594;23.810;2023-11-19T12:03:05;0.90;;;0.90;;
55465;SDS011;41329;41.594;23.810;2023-11-19T12:05:32;1.00;;;1.00;;
55465;SDS011;41329;41.594;23.810;2023-11-19T12:08:04;1.30;;;1.00;;
55465;SDS011;41329;41.594;23.810;2023-11-19T12:10:34;1.37;;;1.27;;
55465;SDS011;41329;41.594;23.810;2023-11-19T12:13:06;1.10;;;1.00;;
55465;SDS011;41329;41.594;23.810;2023-11-19T12:15:51;1.20;;;1.20;;
55465;SDS011;41329;41.594;23.810;2023-11-19T12:18:31;0.80;;;0.80;;
55465;SDS011;41329;41.594;23.810;2023-11-19T12:20:57;1.63;;;1.53;;
55465;SDS011;41329;41.594;23.810;2023-11-19T12:23:29;1.05;;;0.95;;
55465;SDS011;41329;41.594;23.810;2023-11-19T12:25:56;1.07;;;0.97;;
55465;SDS011;41329;41.594;23.810;2023-11-19T12:28:22;1.05;;;1.05;;
55465;SDS011;41329;41.594;23.810;2023-11-19T12:30:49;1.25;;;1.15;;
55465;SDS011;41329;41.594;23.810;2023-11-19T12:33:15;1.40;;;1.25;;
55465;SDS011;41329;41.594;23.810;2023-11-19T12:35:42;131.65;;;44.38;;
55465;SDS011;41329;41.594;23.810;2023-11-19T12:38:29;13.38;;;7.50;;
55465;SDS011;41329;41.594;23.810;2023-11-19T12:41:07;1.35;;;1.25;;
55465;SDS011;41329;41.594;23.810;2023-11-19T12:43:36;1.48;;;1.38;;
55465;SDS011;41329;41.594;23.810;2023-11-19T12:46:21;1.83;;;1.15;;
55465;SDS011;41329;41.594;23.810;2023-11-19T12:48:48;1.83;;;1.48;;
55465;SDS011;41329;41.594;23.810;2023-11-19T12:51:14;1.77;;;1.45;;
55465;SDS011;41329;41.594;23.810;2023-11-19T12:53:52;105.03;;;29.38;;
55465;SDS011;41329;41.594;23.810;2023-11-19T12:56:22;6.18;;;4.88;;
55465;SDS011;41329;41.594;23.810;2023-11-19T12:58:48;2.20;;;1.58;;
55465;SDS011;41329;41.594;23.810;2023-11-19T13:01:18;1.70;;;1.60;;
55465;SDS011;41329;41.594;23.810;2023-11-19T13:03:45;1.15;;;1.10;;
55465;SDS011;41329;41.594;23.810;2023-11-19T13:06:12;238.10;;;67.53;;
55465;SDS011;41329;41.594;23.810;2023-11-19T13:11:09;6.13;;;5.53;;
55465;SDS011;41329;41.594;23.810;2023-11-19T13:13:54;10.05;;;7.35;;
55465;SDS011;41329;41.594;23.810;2023-11-19T13:16:24;92.13;;;30.38;;
55465;SDS011;41329;41.594;23.810;2023-11-19T13:18:51;124.80;;;35.25;;
55465;SDS011;41329;41.594;23.810;2023-11-19T13:21:17;233.75;;;66.78;;
55465;SDS011;41329;41.594;23.810;2023-11-19T13:23:43;106.22;;;35.17;;
55465;SDS011;41329;41.594;23.810;2023-11-19T13:26:09;148.73;;;45.97;;
55465;SDS011;41329;41.594;23.810;2023-11-19T13:28:35;176.98;;;54.30;;
55465;SDS011;41329;41.594;23.810;2023-11-19T13:31:01;118.07;;;47.58;;
55465;SDS011;41329;41.594;23.810;2023-11-19T13:33:27;52.33;;;23.63;;
55465;SDS011;41329;41.594;23.810;2023-11-19T13:35:54;85.78;;;35.03;;
55465;SDS011;41329;41.594;23.810;2023-11-19T13:38:20;13.20;;;10.52;;
55465;SDS011;41329;41.594;23.810;2023-11-19T13:40:45;92.05;;;34.50;;
55465;SDS011;41329;41.594;23.810;2023-11-19T13:43:12;125.38;;;45.22;;
55465;SDS011;41329;41.594;23.810;2023-11-19T13:45:38;120.18;;;43.75;;
55465;SDS011;41329;41.594;23.810;2023-11-19T13:48:03;162.35;;;54.25;;
55465;SDS011;41329;41.594;23.810;2023-11-19T13:50:29;22.55;;;13.98;;
55465;SDS011;41329;41.594;23.810;2023-11-19T13:52:54;211.48;;;96.75;;
55465;SDS011;41329;41.594;23.810;2023-11-19T13:55:20;81.63;;;43.15;;
55465;SDS011;41329;41.594;23.810;2023-11-19T13:57:47;75.30;;;40.20;;
55465;SDS011;41329;41.594;23.810;2023-11-19T14:00:14;24.52;;;20.52;;
55465;SDS011;41329;41.594;23.810;2023-11-19T14:02:50;11.27;;;10.48;;
55465;SDS011;41329;41.594;23.810;2023-11-19T14:05:17;10.20;;;9.40;;
55465;SDS011;41329;41.594;23.810;2023-11-19T14:07:43;19.80;;;17.83;;
55465;SDS011;41329;41.594;23.810;2023-11-19T14:10:09;25.33;;;17.77;;
55465;SDS011;41329;41.594;23.810;2023-11-19T14:12:36;14.50;;;11.52;;
55465;SDS011;41329;41.594;23.810;2023-11-19T14:15:05;6.47;;;6.07;;
55465;SDS011;41329;41.594;23.810;2023-11-19T14:17:33;4.38;;;4.07;;
55465;SDS011;41329;41.594;23.810;2023-11-19T14:19:59;4.43;;;4.00;;
55465;SDS011;41329;41.594;23.810;2023-11-19T14:22:25;6.75;;;5.90;;
55465;SDS011;41329;41.594;23.810;2023-11-19T14:24:51;5.78;;;5.38;;
55465;SDS011;41329;41.594;23.810;2023-11-19T14:27:16;7.43;;;6.75;;
55465;SDS011;41329;41.594;23.810;2023-11-19T14:29:44;9.02;;;8.23;;
55465;SDS011;41329;41.594;23.810;2023-11-19T14:32:10;9.80;;;9.15;;
55465;SDS011;41329;41.594;23.810;2023-11-19T14:34:36;15.60;;;14.07;;
55465;SDS011;41329;41.594;23.810;2023-11-19T14:37:02;14.77;;;13.57;;
55465;SDS011;41329;41.594;23.810;2023-11-19T14:39:27;15.20;;;13.80;;
55465;SDS011;41329;41.594;23.810;2023-11-19T14:41:56;55.67;;;48.47;;
55465;SDS011;41329;41.594;23.810;2023-11-19T14:44:26;32.42;;;28.27;;
55465;SDS011;41329;41.594;23.810;2023-11-19T14:46:52;22.73;;;20.13;;
55465;SDS011;41329;41.594;23.810;2023-11-19T14:49:17;43.63;;;30.52;;
55465;SDS011;41329;41.594;23.810;2023-11-19T14:51:42;51.10;;;32.67;;